Weather observations for the past three days for
Unalakleet
Metric (Imperial)
Date Time (akdt) Wind (kph) Vis. (km) Weather Sky Cond. Temperature (ºC) Relative Humidity Wind Chill (°C) Heat Index (°C) Pressure Precipitation (cm)
Air Dwpt 6 hour altimeter (cm) sea level (mb) 1 hr 3 hr 6 hr
Max. Min.
06 03:56 S 17 16.09 Overcast OVC014 -2.8 -5 -1.7 -2.8 85% -8 76.23 1016.6
06 02:56 SW 24 16.09 Overcast OVC014 -2.2 -4.4 85% -8 76.2 1016.3
06 01:56 W 19 16.09 Overcast OVC016 -2.2 -3.9 88% -7 76.17 1016.1
06 00:56 SW 15 16.09 Overcast OVC018 -2.2 -3.3 92% -7 76.17 1015.7
05 23:56 SW 15 16.09 Overcast OVC018 -2.2 -3.3 92% -7 76.15 1015.5
05 22:56 S 17 16.09 Overcast OVC016 -2.2 -3.9 88% -7 76.12 1015.3
05 21:56 SW 19 16.09 Overcast OVC014 -1.7 -3.9 -0.6 -1.7 85% -7 76.12 1015.1
05 20:56 W 19 16.09 Overcast OVC014 -1.1 -3.9 82% -6 76.07 1014.7
05 19:56 W 20 16.09 Partly Cloudy SCT014 -1.1 -3.9 82% -6 76.07 1014.6
05 18:56 W 17 16.09 Fair CLR -0.6 -3.9 79% -5 76.05 1014.2
05 17:56 W 19 16.09 Fair CLR -0.6 -3.9 79% -5 76.02 1013.8
05 16:56 W 24 16.09 Fair CLR -0.6 -3.9 79% -6 76.02 1013.8
05 15:56 W 24 16.09 Fair CLR -1.1 -4.4 -1.1 -2.8 79% -7 76 1013.5
05 14:56 NW 30 16.09 Fair CLR -1.7 -5 78% -8 75.97 1013.2
05 13:56 NW 31 16.09 Fair CLR -1.7 -5 78% -8 75.95 1012.9
05 12:56 NW 33 16.09 Fair and Breezy CLR -2.2 -5 81% -9 75.92 1012.5
05 11:56 NW 35 16.09 Fair and Breezy CLR -2.8 -5.6 81% -10 75.9 1012.3
05 10:56 NW 30 16.09 A Few Clouds FEW017 -2.8 -5 85% -10 75.9 1012.1
05 09:56 NW 24 16.09 Fair CLR -2.8 -5.6 -2.8 -5 81% -9 75.87 1011.8
05 08:56 NW 24 16.09 Partly Cloudy SCT017 -2.8 -5.6 81% -9 75.84 1011.6
05 07:56 NW 11 16.09 Fair CLR -4.4 -6.7 84% -8 75.82 1011.1
05 06:56 SW 7 16.09 Fair CLR -5 -6.7 88% -8 75.79 1010.8
05 05:56 NW 17 16.09 Fair CLR -4.4 -6.1 88% -10 75.77 1010.4
05 04:56 NW 20 16.09 Fair CLR -3.3 -5.6 84% -9 75.72 1009.9
05 03:56 NW 24 16.09 Fair CLR -2.8 -5 2.8 -2.8 85% -9 75.72 1009.8
05 02:56 NW 17 16.09 Fair CLR -2.2 -4.4 85% -7 75.72 1009.8
05 01:56 NW 20 16.09 Mostly Cloudy BKN060 -1.7 -3.9 85% -7 75.72 1009.9
05 00:56 NW 31 16.09 Mostly Cloudy BKN060 -1.1 -3.3 85% -8 75.69 1009.6
04 23:56 NW 24 16.09 Fair CLR -0.6 -3.3 82% -6 75.72 1009.8
04 22:56 N 24 16.09 Fair CLR 1.7 -3.3 70% -3 75.72 1009.9
04 21:56 N 33 16.09 Fair and Breezy CLR 2.8 -3.3 3.9 0 65% -3 75.72 1009.9
04 20:56 N 31 16.09 Fair CLR 3.3 -2.8 65% -2 75.74 1010.3
04 19:56 NW 31 16.09 Fair CLR 3.9 -2.2 65% -1 75.79 1010.8
04 18:56 NW 33 16.09 Fair and Breezy CLR 2.2 -1.7 76% -3 75.82 1011.3
04 17:56 NW 37 16.09 Fair and Breezy CLR 2.2 -1.7 76% -4 75.87 1011.8
04 16:56 NW 33 16.09 Fair and Breezy CLR 1.1 -2.2 79% -5 75.97 1013.2
04 15:56 NW 33 16.09 Fair and Breezy CLR 0 -2.2 0 -2.2 85% -6 76.07 1014.5
04 14:56 NW 33 16.09 Fair and Breezy CLR -0.6 -2.8 85% -7 76.15 1015.7
04 13:56 NW 28 16.09 Mostly Cloudy BKN022 -0.6 -3.3 82% -7 76.23 1016.7
04 12:56 NW 24 16.09 Overcast OVC016 -1.1 -3.3 85% -7 76.3 1017.5
04 11:56 NW 20 16.09 Overcast OVC014 -1.7 -3.9 85% -7 76.33 1018.1
04 10:56 NW 17 16.09 Overcast OVC014 -1.7 -3.9 85% -6 76.38 1018.7
04 09:56 NW 11 16.09 Overcast OVC014 -2.2 -5 -2.2 -2.8 81% -6 76.43 1019.2
04 08:56 NW 15 16.09 Overcast OVC014 -2.2 -5 81% -7 76.45 1019.5
04 07:56 N 9 16.09 Overcast OVC014 -2.8 -5 85% -6 76.48 1019.8
04 06:56 N 6 16.09 Overcast OVC014 -2.8 -5 85% 76.5 1020.2
04 05:56 N 7 16.09 Overcast OVC014 -2.8 -5 85% -5 76.5 1020.3
04 03:56 NW 9 16.09 Overcast OVC012 -2.8 -5 -2.8 -3.3 85% -6 76.53 1020.6
04 02:56 NW 9 16.09 Overcast OVC012 -2.8 -5 85% -6 76.53 1020.8
04 01:56 NW 7 16.09 Overcast OVC012 -2.8 -5 85% -5 76.56 1021.0
04 00:56 NW 11 16.09 Overcast OVC012 -2.8 -5 85% -7 76.56 1020.9
03 23:56 Calm 16.09 Overcast OVC014 -2.8 -5 85% 76.56 1021.1
03 22:56 W 13 16.09 Overcast OVC014 -2.8 -5 85% -7 76.56 1021.0
03 21:56 W 13 16.09 Overcast OVC014 -2.8 -5 -0.6 -2.8 85% -7 76.56 1020.8
03 20:56 W 9 16.09 Overcast OVC014 -2.2 -5.6 78% -5 76.56 1021.1
03 19:56 W 7 16.09 Overcast OVC016 -1.7 -5 78% -4 76.58 1021.2
03 18:56 W 9 16.09 Overcast OVC016 -1.7 -5 78% -5 76.58 1021.4
03 17:56 W 7 16.09 Overcast OVC016 -1.1 -4.4 79% -3 76.61 1021.6
03 16:56 W 9 16.09 Overcast OVC014 -1.1 -4.4 79% -4 76.63 1021.9
03 15:56 SW 6 16.09 Overcast OVC014 -0.6 -4.4 -0.6 -2.8 76% 76.63 1022.0
03 14:56 SW 6 16.09 Overcast OVC014 -1.1 -4.4 79% 76.63 1022.0
03 13:56 SW 11 16.09 Overcast OVC012 -1.7 -4.4 82% -5 76.63 1022.1
03 12:56 SW 9 16.09 Overcast OVC012 -1.7 -4.4 82% -5 76.63 1021.9
03 11:56 SW 9 16.09 Overcast OVC010 -2.2 -4.4 85% -5 76.61 1021.7
03 10:56 SW 9 16.09 Overcast OVC012 -2.2 -4.4 85% -5 76.58 1021.4
03 09:56 SW 11 16.09 Overcast OVC014 -2.8 -4.4 -2.8 -3.3 89% -7 76.56 1021.0
03 08:56 SW 13 16.09 Overcast OVC014 -2.8 -5 85% -7 76.53 1020.6
03 07:56 SW 17 16.09 Overcast OVC012 -3.3 -5 88% -8 76.48 1020.0
03 06:56 SW 24 16.09 Overcast OVC012 -3.3 -4.4 92% -10 76.45 1019.6
03 05:56 SW 22 16.09 Overcast OVC014 -2.8 -4.4 89% -9 76.4 1019.0
03 04:56 SW 19 16.09 Overcast OVC012 -3.3 -5 88% -9 76.38 1018.6
Date Time (akdt) Wind (kph) Vis. (km) Weather Sky Cond. Air Dwpt Max. Min. Relative Humidity Wind Chill (°C) Heat Index (°C) altimeter (cm) sea level (mb) 1 hr 3 hr 6 hr
6 hour
Temperature (ºC) Pressure Precipitation (cm)